Terminal Aerodrome Forecast
Issued by NWS

Home | Current Version | Previous Version | Text Only | Print | Product List | Glossary On
Versions: 1 2 3 4 5 6 7 8 9 10 11 12 13 14 15 16 17 18 19 20 21
000
FTUS43 KEAX 190500
TAFMKC
TAF
KMKC 190520Z 1906/2006 10004KT P6SM SKC
     FM190800 11004KT 5SM BR SCT006
     FM191000 13006KT 3SM BR BKN006
     FM191500 15008KT P6SM OVC012
     FM191700 18010KT P6SM SCT025
      TEMPO 1917/1919 BKN025=

USA.gov is the U.S. government's official web portal to all federal, state and local government web resources and services.